sensor_id;sensor_type;location;lat;lon;timestamp;P1;P2;P0
76101;PMS7003;64830;46.910;6.354;2023-04-03T00:01:05;6.00;6.00;5.00
76101;PMS7003;64830;46.910;6.354;2023-04-03T00:03:31;11.75;6.25;5.25
76101;PMS7003;64830;46.910;6.354;2023-04-03T00:05:56;7.75;5.75;5.00
76101;PMS7003;64830;46.910;6.354;2023-04-03T00:08:22;6.50;6.50;5.75
76101;PMS7003;64830;46.910;6.354;2023-04-03T00:10:47;6.25;6.25;5.00
76101;PMS7003;64830;46.910;6.354;2023-04-03T00:13:13;8.00;4.50;2.75
76101;PMS7003;64830;46.910;6.354;2023-04-03T00:15:40;9.75;5.75;5.00
76101;PMS7003;64830;46.910;6.354;2023-04-03T00:18:05;5.00;5.00;3.00
76101;PMS7003;64830;46.910;6.354;2023-04-03T00:20:32;6.00;5.00;2.75
76101;PMS7003;64830;46.910;6.354;2023-04-03T00:22:58;7.00;7.00;5.00
76101;PMS7003;64830;46.910;6.354;2023-04-03T00:25:23;7.00;5.50;5.00
76101;PMS7003;64830;46.910;6.354;2023-04-03T00:27:48;5.75;5.00;3.50
76101;PMS7003;64830;46.910;6.354;2023-04-03T00:30:15;2.50;2.50;2.50
76101;PMS7003;64830;46.910;6.354;2023-04-03T00:32:42;5.00;5.00;3.50
76101;PMS7003;64830;46.910;6.354;2023-04-03T00:35:08;6.00;3.50;3.50
76101;PMS7003;64830;46.910;6.354;2023-04-03T00:37:34;5.50;5.50;4.50
76101;PMS7003;64830;46.910;6.354;2023-04-03T00:40:00;5.75;5.00;3.00
76101;PMS7003;64830;46.910;6.354;2023-04-03T00:42:25;4.25;4.25;2.00
76101;PMS7003;64830;46.910;6.354;2023-04-03T00:47:22;5.25;3.00;3.00
76101;PMS7003;64830;46.910;6.354;2023-04-03T00:49:48;5.25;3.50;2.25
76101;PMS7003;64830;46.910;6.354;2023-04-03T00:52:16;4.50;4.50;3.00
76101;PMS7003;64830;46.910;6.354;2023-04-03T00:54:44;5.00;5.00;2.00
76101;PMS7003;64830;46.910;6.354;2023-04-03T00:57:12;5.50;3.00;2.25
76101;PMS7003;64830;46.910;6.354;2023-04-03T00:59:40;5.25;3.00;2.25
76101;PMS7003;64830;46.910;6.354;2023-04-03T01:02:11;5.00;4.50;2.75
76101;PMS7003;64830;46.910;6.354;2023-04-03T01:04:38;6.75;5.00;3.00
76101;PMS7003;64830;46.910;6.354;2023-04-03T01:07:15;6.00;5.00;3.00
76101;PMS7003;64830;46.910;6.354;2023-04-03T01:09:45;5.00;4.00;2.50
76101;PMS7003;64830;46.910;6.354;2023-04-03T01:12:16;5.00;4.00;3.00
76101;PMS7003;64830;46.910;6.354;2023-04-03T01:14:44;4.50;4.50;2.00
76101;PMS7003;64830;46.910;6.354;2023-04-03T01:20:21;3.00;3.00;3.00
76101;PMS7003;64830;46.910;6.354;2023-04-03T01:25:18;3.50;2.25;2.00
76101;PMS7003;64830;46.910;6.354;2023-04-03T01:27:43;3.00;3.00;2.00
76101;PMS7003;64830;46.910;6.354;2023-04-03T01:30:09;3.00;3.00;2.75
76101;PMS7003;64830;46.910;6.354;2023-04-03T01:32:35;9.50;5.25;5.00
76101;PMS7003;64830;46.910;6.354;2023-04-03T01:35:00;10.50;5.00;3.00
76101;PMS7003;64830;46.910;6.354;2023-04-03T01:37:26;3.00;2.75;2.75
76101;PMS7003;64830;46.910;6.354;2023-04-03T01:39:51;5.00;5.00;2.75
76101;PMS7003;64830;46.910;6.354;2023-04-03T01:42:17;6.25;5.00;3.00
76101;PMS7003;64830;46.910;6.354;2023-04-03T01:44:42;3.00;3.00;2.75
76101;PMS7003;64830;46.910;6.354;2023-04-03T01:47:08;7.00;5.00;3.00
76101;PMS7003;64830;46.910;6.354;2023-04-03T01:49:33;6.75;6.75;5.50
76101;PMS7003;64830;46.910;6.354;2023-04-03T01:51:58;8.75;7.50;5.25
76101;PMS7003;64830;46.910;6.354;2023-04-03T01:54:24;4.50;4.50;2.50
76101;PMS7003;64830;46.910;6.354;2023-04-03T01:56:49;6.50;5.00;3.00
76101;PMS7003;64830;46.910;6.354;2023-04-03T01:59:15;6.50;6.25;5.50
76101;PMS7003;64830;46.910;6.354;2023-04-03T02:01:42;5.00;5.00;5.00
76101;PMS7003;64830;46.910;6.354;2023-04-03T02:04:10;6.00;6.00;5.00
76101;PMS7003;64830;46.910;6.354;2023-04-03T02:06:36;6.75;6.50;5.75
76101;PMS7003;64830;46.910;6.354;2023-04-03T02:09:01;6.75;5.25;4.00
76101;PMS7003;64830;46.910;6.354;2023-04-03T02:11:26;10.75;8.00;6.00
76101;PMS7003;64830;46.910;6.354;2023-04-03T02:13:52;6.50;6.50;5.00
76101;PMS7003;64830;46.910;6.354;2023-04-03T02:16:17;6.25;6.00;5.00
76101;PMS7003;64830;46.910;6.354;2023-04-03T02:18:43;3.50;3.50;3.00
76101;PMS7003;64830;46.910;6.354;2023-04-03T02:21:08;7.50;6.00;5.00
76101;PMS7003;64830;46.910;6.354;2023-04-03T02:23:34;6.75;6.75;5.00
76101;PMS7003;64830;46.910;6.354;2023-04-03T02:26:11;9.25;6.75;5.75
76101;PMS7003;64830;46.910;6.354;2023-04-03T02:28:38;5.00;3.00;2.00
76101;PMS7003;64830;46.910;6.354;2023-04-03T02:31:07;2.25;2.25;1.00
76101;PMS7003;64830;46.910;6.354;2023-04-03T02:33:35;3.50;3.50;2.00
76101;PMS7003;64830;46.910;6.354;2023-04-03T02:36:04;3.50;2.00;2.00
76101;PMS7003;64830;46.910;6.354;2023-04-03T02:38:30;1.00;1.00;1.00
76101;PMS7003;64830;46.910;6.354;2023-04-03T02:40:59;2.00;2.00;1.00
76101;PMS7003;64830;46.910;6.354;2023-04-03T02:43:26;1.50;1.50;1.00
76101;PMS7003;64830;46.910;6.354;2023-04-03T02:45:51;2.00;2.00;1.50
76101;PMS7003;64830;46.910;6.354;2023-04-03T02:48:17;3.00;3.00;2.50
76101;PMS7003;64830;46.910;6.354;2023-04-03T02:50:42;2.75;2.75;2.25
76101;PMS7003;64830;46.910;6.354;2023-04-03T02:53:07;2.75;2.75;2.50
76101;PMS7003;64830;46.910;6.354;2023-04-03T02:55:33;2.00;2.00;2.00
76101;PMS7003;64830;46.910;6.354;2023-04-03T02:57:58;1.50;1.50;1.50
76101;PMS7003;64830;46.910;6.354;2023-04-03T03:00:24;2.00;2.00;1.00
76101;PMS7003;64830;46.910;6.354;2023-04-03T03:02:49;2.50;2.00;1.00
76101;PMS7003;64830;46.910;6.354;2023-04-03T03:05:14;2.25;2.25;1.25
76101;PMS7003;64830;46.910;6.354;2023-04-03T03:07:40;2.25;2.25;2.00
76101;PMS7003;64830;46.910;6.354;2023-04-03T03:10:06;3.00;2.00;1.75
76101;PMS7003;64830;46.910;6.354;2023-04-03T03:12:31;1.50;1.50;1.00
76101;PMS7003;64830;46.910;6.354;2023-04-03T03:14:57;2.25;2.25;2.00
76101;PMS7003;64830;46.910;6.354;2023-04-03T03:17:22;4.00;1.50;1.25
76101;PMS7003;64830;46.910;6.354;2023-04-03T03:19:47;2.50;1.50;1.00
76101;PMS7003;64830;46.910;6.354;2023-04-03T03:22:13;1.25;1.25;1.00
76101;PMS7003;64830;46.910;6.354;2023-04-03T03:24:38;4.50;2.00;2.00
76101;PMS7003;64830;46.910;6.354;2023-04-03T03:27:04;3.50;3.50;2.00
76101;PMS7003;64830;46.910;6.354;2023-04-03T03:29:29;3.00;3.00;2.00
76101;PMS7003;64830;46.910;6.354;2023-04-03T03:31:55;3.00;2.00;2.00
76101;PMS7003;64830;46.910;6.354;2023-04-03T03:34:20;2.50;2.00;2.00
76101;PMS7003;64830;46.910;6.354;2023-04-03T03:36:46;2.50;2.50;2.00
76101;PMS7003;64830;46.910;6.354;2023-04-03T03:39:11;5.00;1.50;1.50
76101;PMS7003;64830;46.910;6.354;2023-04-03T03:41:36;3.25;3.25;2.25
76101;PMS7003;64830;46.910;6.354;2023-04-03T03:44:02;5.25;3.00;2.00
76101;PMS7003;64830;46.910;6.354;2023-04-03T03:46:27;2.25;1.75;1.00
76101;PMS7003;64830;46.910;6.354;2023-04-03T03:48:53;2.00;2.00;2.00
76101;PMS7003;64830;46.910;6.354;2023-04-03T03:51:18;2.00;2.00;1.50
76101;PMS7003;64830;46.910;6.354;2023-04-03T03:53:43;1.00;1.00;1.00
76101;PMS7003;64830;46.910;6.354;2023-04-03T03:56:09;7.50;4.00;3.00
76101;PMS7003;64830;46.910;6.354;2023-04-03T03:58:34;4.75;3.25;2.00
76101;PMS7003;64830;46.910;6.354;2023-04-03T04:01:01;1.75;1.75;1.00
76101;PMS7003;64830;46.910;6.354;2023-04-03T04:03:27;2.75;2.00;1.00
76101;PMS7003;64830;46.910;6.354;2023-04-03T04:05:52;2.50;2.00;2.00
76101;PMS7003;64830;46.910;6.354;2023-04-03T04:08:18;3.00;2.75;2.00
76101;PMS7003;64830;46.910;6.354;2023-04-03T04:10:43;5.00;2.00;1.75
76101;PMS7003;64830;46.910;6.354;2023-04-03T04:13:09;1.00;1.00;1.00
76101;PMS7003;64830;46.910;6.354;2023-04-03T04:15:34;3.25;3.25;2.00
76101;PMS7003;64830;46.910;6.354;2023-04-03T04:18:00;3.00;1.50;1.25
76101;PMS7003;64830;46.910;6.354;2023-04-03T04:20:25;3.75;2.25;2.00
76101;PMS7003;64830;46.910;6.354;2023-04-03T04:22:50;1.00;1.00;1.00
76101;PMS7003;64830;46.910;6.354;2023-04-03T04:25:16;4.00;1.50;1.50
76101;PMS7003;64830;46.910;6.354;2023-04-03T04:27:41;2.00;2.00;1.25
76101;PMS7003;64830;46.910;6.354;2023-04-03T04:30:07;1.00;1.00;1.00
76101;PMS7003;64830;46.910;6.354;2023-04-03T04:32:34;2.00;2.00;2.00
76101;PMS7003;64830;46.910;6.354;2023-04-03T04:35:00;1.25;1.00;1.00
76101;PMS7003;64830;46.910;6.354;2023-04-03T04:37:26;4.25;2.00;1.00
76101;PMS7003;64830;46.910;6.354;2023-04-03T04:39:51;1.00;1.00;1.00
76101;PMS7003;64830;46.910;6.354;2023-04-03T04:42:16;1.00;1.00;1.00
76101;PMS7003;64830;46.910;6.354;2023-04-03T04:44:42;1.00;0.75;0.00
76101;PMS7003;64830;46.910;6.354;2023-04-03T04:47:07;1.00;1.00;1.00
76101;PMS7003;64830;46.910;6.354;2023-04-03T04:49:33;2.25;2.25;2.00
76101;PMS7003;64830;46.910;6.354;2023-04-03T04:51:58;2.75;1.00;0.75
76101;PMS7003;64830;46.910;6.354;2023-04-03T04:54:23;1.50;1.00;1.00
76101;PMS7003;64830;46.910;6.354;2023-04-03T04:56:49;4.75;1.00;1.00
76101;PMS7003;64830;46.910;6.354;2023-04-03T04:59:14;2.00;2.00;2.00
76101;PMS7003;64830;46.910;6.354;2023-04-03T05:01:40;2.00;2.00;2.00
76101;PMS7003;64830;46.910;6.354;2023-04-03T05:04:05;2.00;1.75;1.75
76101;PMS7003;64830;46.910;6.354;2023-04-03T05:06:31;3.25;3.00;2.00
76101;PMS7003;64830;46.910;6.354;2023-04-03T05:08:57;3.00;2.00;1.00
76101;PMS7003;64830;46.910;6.354;2023-04-03T05:11:23;2.00;1.50;1.00
76101;PMS7003;64830;46.910;6.354;2023-04-03T05:13:49;5.75;3.00;2.00
76101;PMS7003;64830;46.910;6.354;2023-04-03T05:16:14;1.50;1.50;1.00
76101;PMS7003;64830;46.910;6.354;2023-04-03T05:18:40;3.00;2.00;2.00
76101;PMS7003;64830;46.910;6.354;2023-04-03T05:21:05;4.50;2.50;1.50
76101;PMS7003;64830;46.910;6.354;2023-04-03T05:23:30;3.50;2.00;2.00
76101;PMS7003;64830;46.910;6.354;2023-04-03T05:25:56;1.00;1.00;0.25
76101;PMS7003;64830;46.910;6.354;2023-04-03T05:28:21;4.00;1.75;1.50
76101;PMS7003;64830;46.910;6.354;2023-04-03T05:30:54;1.75;1.00;1.00
76101;PMS7003;64830;46.910;6.354;2023-04-03T05:33:21;2.00;2.00;1.75
76101;PMS7003;64830;46.910;6.354;2023-04-03T05:35:46;2.00;2.00;1.25
76101;PMS7003;64830;46.910;6.354;2023-04-03T05:38:12;2.25;2.25;1.75
76101;PMS7003;64830;46.910;6.354;2023-04-03T05:40:37;1.75;1.75;1.50
76101;PMS7003;64830;46.910;6.354;2023-04-03T05:43:03;2.00;2.00;1.50
76101;PMS7003;64830;46.910;6.354;2023-04-03T05:45:28;6.25;4.00;3.00
76101;PMS7003;64830;46.910;6.354;2023-04-03T05:47:54;2.00;1.50;1.25
76101;PMS7003;64830;46.910;6.354;2023-04-03T05:50:19;5.00;2.75;2.25
76101;PMS7003;64830;46.910;6.354;2023-04-03T05:52:45;10.75;9.50;7.00
76101;PMS7003;64830;46.910;6.354;2023-04-03T05:55:13;7.50;7.50;5.50
76101;PMS7003;64830;46.910;6.354;2023-04-03T05:57:39;2.50;2.50;2.25
76101;PMS7003;64830;46.910;6.354;2023-04-03T06:00:06;6.75;5.00;3.00
76101;PMS7003;64830;46.910;6.354;2023-04-03T06:02:34;7.00;7.00;5.75
76101;PMS7003;64830;46.910;6.354;2023-04-03T06:05:00;3.00;3.00;1.75
76101;PMS7003;64830;46.910;6.354;2023-04-03T06:07:26;0.00;0.00;0.00
76101;PMS7003;64830;46.910;6.354;2023-04-03T06:09:53;2.00;2.00;1.75
76101;PMS7003;64830;46.910;6.354;2023-04-03T06:12:21;3.00;2.25;2.00
76101;PMS7003;64830;46.910;6.354;2023-04-03T06:14:46;2.25;2.25;2.25
76101;PMS7003;64830;46.910;6.354;2023-04-03T06:17:12;5.25;3.00;2.50
76101;PMS7003;64830;46.910;6.354;2023-04-03T06:19:38;5.00;3.00;2.75
76101;PMS7003;64830;46.910;6.354;2023-04-03T06:22:04;4.00;3.25;2.00
76101;PMS7003;64830;46.910;6.354;2023-04-03T06:24:30;2.00;2.00;1.00
76101;PMS7003;64830;46.910;6.354;2023-04-03T06:26:56;3.00;2.00;2.00
76101;PMS7003;64830;46.910;6.354;2023-04-03T06:29:22;1.00;1.00;1.00
76101;PMS7003;64830;46.910;6.354;2023-04-03T06:31:48;2.00;1.25;1.00
76101;PMS7003;64830;46.910;6.354;2023-04-03T06:34:15;3.25;2.00;2.00
76101;PMS7003;64830;46.910;6.354;2023-04-03T06:36:41;1.00;1.00;1.00
76101;PMS7003;64830;46.910;6.354;2023-04-03T06:39:09;4.50;4.50;2.75
76101;PMS7003;64830;46.910;6.354;2023-04-03T06:41:38;2.00;2.00;2.00
76101;PMS7003;64830;46.910;6.354;2023-04-03T06:44:04;1.25;1.00;1.00
76101;PMS7003;64830;46.910;6.354;2023-04-03T06:46:29;4.50;2.00;2.00
76101;PMS7003;64830;46.910;6.354;2023-04-03T06:48:55;2.25;2.00;2.00
76101;PMS7003;64830;46.910;6.354;2023-04-03T06:51:27;2.00;2.00;2.00
76101;PMS7003;64830;46.910;6.354;2023-04-03T06:53:55;2.00;2.00;2.00
76101;PMS7003;64830;46.910;6.354;2023-04-03T06:56:21;2.75;2.00;1.75
76101;PMS7003;64830;46.910;6.354;2023-04-03T06:58:47;3.50;2.75;2.25
76101;PMS7003;64830;46.910;6.354;2023-04-03T07:01:14;2.25;2.00;2.00
76101;PMS7003;64830;46.910;6.354;2023-04-03T07:03:41;6.00;3.00;3.00
76101;PMS7003;64830;46.910;6.354;2023-04-03T07:06:07;3.50;2.25;1.75
76101;PMS7003;64830;46.910;6.354;2023-04-03T07:08:35;2.75;2.25;1.50
76101;PMS7003;64830;46.910;6.354;2023-04-03T07:11:01;5.50;5.50;4.50
76101;PMS7003;64830;46.910;6.354;2023-04-03T07:13:26;4.75;3.00;2.00
76101;PMS7003;64830;46.910;6.354;2023-04-03T07:15:52;10.25;5.75;4.50
76101;PMS7003;64830;46.910;6.354;2023-04-03T07:18:18;3.00;3.00;2.00
76101;PMS7003;64830;46.910;6.354;2023-04-03T07:20:43;3.00;3.00;2.50
76101;PMS7003;64830;46.910;6.354;2023-04-03T07:23:09;2.25;2.25;1.25
76101;PMS7003;64830;46.910;6.354;2023-04-03T07:25:35;1.75;1.75;1.00
76101;PMS7003;64830;46.910;6.354;2023-04-03T07:28:01;1.00;1.00;1.00
76101;PMS7003;64830;46.910;6.354;2023-04-03T07:30:26;0.50;0.50;0.00
76101;PMS7003;64830;46.910;6.354;2023-04-03T07:32:52;1.00;1.00;1.00
76101;PMS7003;64830;46.910;6.354;2023-04-03T07:35:17;1.00;1.00;1.00
76101;PMS7003;64830;46.910;6.354;2023-04-03T07:37:43;2.50;1.00;0.50
76101;PMS7003;64830;46.910;6.354;2023-04-03T07:40:08;0.50;0.00;0.00
76101;PMS7003;64830;46.910;6.354;2023-04-03T07:42:34;1.00;1.00;0.25
76101;PMS7003;64830;46.910;6.354;2023-04-03T07:45:01;1.50;1.00;1.00
76101;PMS7003;64830;46.910;6.354;2023-04-03T07:47:27;2.50;2.00;1.75
76101;PMS7003;64830;46.910;6.354;2023-04-03T07:49:53;0.75;0.75;0.00
76101;PMS7003;64830;46.910;6.354;2023-04-03T07:52:18;1.00;0.00;0.00
76101;PMS7003;64830;46.910;6.354;2023-04-03T07:54:44;1.00;1.00;1.00
76101;PMS7003;64830;46.910;6.354;2023-04-03T07:57:09;5.50;5.50;3.75
76101;PMS7003;64830;46.910;6.354;2023-04-03T07:59:35;2.00;2.00;1.75
76101;PMS7003;64830;46.910;6.354;2023-04-03T08:02:01;0.00;0.00;0.00
76101;PMS7003;64830;46.910;6.354;2023-04-03T08:04:26;2.75;1.50;1.00
76101;PMS7003;64830;46.910;6.354;2023-04-03T08:06:52;1.25;0.25;0.00
76101;PMS7003;64830;46.910;6.354;2023-04-03T08:09:17;1.00;1.00;0.25
76101;PMS7003;64830;46.910;6.354;2023-04-03T08:11:44;1.00;1.00;0.75
76101;PMS7003;64830;46.910;6.354;2023-04-03T08:14:10;0.00;0.00;0.00
76101;PMS7003;64830;46.910;6.354;2023-04-03T08:16:41;1.00;1.00;1.00
76101;PMS7003;64830;46.910;6.354;2023-04-03T08:19:07;1.00;1.00;1.00
76101;PMS7003;64830;46.910;6.354;2023-04-03T08:21:32;1.75;1.00;1.00
76101;PMS7003;64830;46.910;6.354;2023-04-03T08:23:58;2.00;1.00;1.00
76101;PMS7003;64830;46.910;6.354;2023-04-03T08:26:24;1.00;1.00;1.00
76101;PMS7003;64830;46.910;6.354;2023-04-03T08:28:51;0.00;0.00;0.00
76101;PMS7003;64830;46.910;6.354;2023-04-03T08:31:17;0.00;0.00;0.00
76101;PMS7003;64830;46.910;6.354;2023-04-03T08:33:45;0.00;0.00;0.00
76101;PMS7003;64830;46.910;6.354;2023-04-03T08:36:18;3.25;0.75;0.00
76101;PMS7003;64830;46.910;6.354;2023-04-03T08:38:48;0.00;0.00;0.00
76101;PMS7003;64830;46.910;6.354;2023-04-03T08:49:30;1.50;1.00;1.00
76101;PMS7003;64830;46.910;6.354;2023-04-03T08:51:59;0.00;0.00;0.00
76101;PMS7003;64830;46.910;6.354;2023-04-03T08:57:05;7.25;5.00;3.00
76101;PMS7003;64830;46.910;6.354;2023-04-03T08:59:34;2.25;2.25;1.50
76101;PMS7003;64830;46.910;6.354;2023-04-03T09:02:04;1.00;1.00;1.00
76101;PMS7003;64830;46.910;6.354;2023-04-03T09:05:14;1.00;1.00;0.00
76101;PMS7003;64830;46.910;6.354;2023-04-03T09:07:44;1.00;1.00;1.00
76101;PMS7003;64830;46.910;6.354;2023-04-03T09:10:14;1.75;1.75;1.50
76101;PMS7003;64830;46.910;6.354;2023-04-03T09:12:49;0.00;0.00;0.00
76101;PMS7003;64830;46.910;6.354;2023-04-03T09:15:26;1.00;0.00;0.00
76101;PMS7003;64830;46.910;6.354;2023-04-03T09:20:58;3.00;1.75;1.00
76101;PMS7003;64830;46.910;6.354;2023-04-03T09:26:18;1.00;1.00;0.00
76101;PMS7003;64830;46.910;6.354;2023-04-03T09:28:50;0.00;0.00;0.00
76101;PMS7003;64830;46.910;6.354;2023-04-03T09:31:23;0.25;0.25;0.25
76101;PMS7003;64830;46.910;6.354;2023-04-03T09:33:52;2.00;2.00;0.75
76101;PMS7003;64830;46.910;6.354;2023-04-03T09:39:15;0.00;0.00;0.00
76101;PMS7003;64830;46.910;6.354;2023-04-03T09:41:43;0.50;0.50;0.00
76101;PMS7003;64830;46.910;6.354;2023-04-03T09:44:36;3.75;2.00;1.00
76101;PMS7003;64830;46.910;6.354;2023-04-03T09:49:47;1.00;1.00;1.00
76101;PMS7003;64830;46.910;6.354;2023-04-03T09:52:46;1.00;0.00;0.00
76101;PMS7003;64830;46.910;6.354;2023-04-03T09:55:06;0.00;0.00;0.00
76101;PMS7003;64830;46.910;6.354;2023-04-03T09:57:43;1.00;1.00;1.00
76101;PMS7003;64830;46.910;6.354;2023-04-03T10:00:19;0.00;0.00;0.00
76101;PMS7003;64830;46.910;6.354;2023-04-03T10:02:49;0.00;0.00;0.00
76101;PMS7003;64830;46.910;6.354;2023-04-03T10:05:28;0.00;0.00;0.00
76101;PMS7003;64830;46.910;6.354;2023-04-03T10:10:34;0.00;0.00;0.00
76101;PMS7003;64830;46.910;6.354;2023-04-03T10:13:09;0.00;0.00;0.00
76101;PMS7003;64830;46.910;6.354;2023-04-03T10:15:44;0.00;0.00;0.00
76101;PMS7003;64830;46.910;6.354;2023-04-03T10:18:55;0.75;0.00;0.00
76101;PMS7003;64830;46.910;6.354;2023-04-03T10:24:25;0.00;0.00;0.00
76101;PMS7003;64830;46.910;6.354;2023-04-03T10:30:05;0.00;0.00;0.00
76101;PMS7003;64830;46.910;6.354;2023-04-03T10:32:52;0.00;0.00;0.00
76101;PMS7003;64830;46.910;6.354;2023-04-03T10:41:16;0.75;0.75;0.75
76101;PMS7003;64830;46.910;6.354;2023-04-03T10:46:52;0.00;0.00;0.00
76101;PMS7003;64830;46.910;6.354;2023-04-03T10:49:34;1.00;1.00;0.50
76101;PMS7003;64830;46.910;6.354;2023-04-03T10:54:58;1.00;1.00;1.00
76101;PMS7003;64830;46.910;6.354;2023-04-03T10:57:35;0.00;0.00;0.00
76101;PMS7003;64830;46.910;6.354;2023-04-03T11:00:05;1.00;1.00;0.00
76101;PMS7003;64830;46.910;6.354;2023-04-03T11:02:41;0.00;0.00;0.00
76101;PMS7003;64830;46.910;6.354;2023-04-03T11:05:29;0.00;0.00;0.00
76101;PMS7003;64830;46.910;6.354;2023-04-03T11:08:03;0.00;0.00;0.00
76101;PMS7003;64830;46.910;6.354;2023-04-03T11:10:42;1.25;1.00;1.00
76101;PMS7003;64830;46.910;6.354;2023-04-03T11:15:41;1.00;1.00;0.00
76101;PMS7003;64830;46.910;6.354;2023-04-03T11:21:02;1.00;1.00;1.00
76101;PMS7003;64830;46.910;6.354;2023-04-03T11:23:36;1.75;1.00;0.00
76101;PMS7003;64830;46.910;6.354;2023-04-03T11:26:07;1.25;0.00;0.00
76101;PMS7003;64830;46.910;6.354;2023-04-03T11:28:36;1.50;1.00;0.00
76101;PMS7003;64830;46.910;6.354;2023-04-03T11:33:43;2.25;1.75;1.00
76101;PMS7003;64830;46.910;6.354;2023-04-03T11:36:24;1.25;1.25;1.00
76101;PMS7003;64830;46.910;6.354;2023-04-03T11:38:55;3.25;3.25;2.00
76101;PMS7003;64830;46.910;6.354;2023-04-03T11:41:27;1.75;1.75;1.00
76101;PMS7003;64830;46.910;6.354;2023-04-03T11:43:56;0.00;0.00;0.00
76101;PMS7003;64830;46.910;6.354;2023-04-03T11:46:49;2.25;1.50;1.00
76101;PMS7003;64830;46.910;6.354;2023-04-03T12:05:51;1.00;1.00;1.00
76101;PMS7003;64830;46.910;6.354;2023-04-03T12:08:29;2.25;2.00;2.00
76101;PMS7003;64830;46.910;6.354;2023-04-03T12:26:31;3.00;3.00;3.00
76101;PMS7003;64830;46.910;6.354;2023-04-03T12:43:21;3.25;3.25;2.75
76101;PMS7003;64830;46.910;6.354;2023-04-03T12:45:59;4.00;3.00;2.00
76101;PMS7003;64830;46.910;6.354;2023-04-03T12:48:29;3.00;1.25;1.00
76101;PMS7003;64830;46.910;6.354;2023-04-03T12:50:58;2.50;2.00;2.00
76101;PMS7003;64830;46.910;6.354;2023-04-03T12:53:25;1.00;1.00;0.00
76101;PMS7003;64830;46.910;6.354;2023-04-03T12:55:54;3.00;2.75;2.00
76101;PMS7003;64830;46.910;6.354;2023-04-03T12:58:22;2.75;2.75;2.00
76101;PMS7003;64830;46.910;6.354;2023-04-03T13:01:01;3.75;3.75;3.00
76101;PMS7003;64830;46.910;6.354;2023-04-03T13:03:39;3.00;2.00;1.25
76101;PMS7003;64830;46.910;6.354;2023-04-03T13:06:10;4.00;4.00;2.50
76101;PMS7003;64830;46.910;6.354;2023-04-03T13:08:50;1.00;1.00;0.00
76101;PMS7003;64830;46.910;6.354;2023-04-03T13:11:22;2.50;2.50;2.00
76101;PMS7003;64830;46.910;6.354;2023-04-03T13:13:59;3.75;3.25;3.00
76101;PMS7003;64830;46.910;6.354;2023-04-03T13:16:28;6.25;3.00;2.75
76101;PMS7003;64830;46.910;6.354;2023-04-03T13:18:53;4.00;4.00;3.00
76101;PMS7003;64830;46.910;6.354;2023-04-03T13:21:24;5.25;3.75;3.00
76101;PMS7003;64830;46.910;6.354;2023-04-03T13:23:53;3.25;2.00;1.50
76101;PMS7003;64830;46.910;6.354;2023-04-03T13:26:22;4.00;3.00;2.25
76101;PMS7003;64830;46.910;6.354;2023-04-03T13:28:52;5.75;5.50;3.25
76101;PMS7003;64830;46.910;6.354;2023-04-03T13:31:25;7.00;6.25;4.00
76101;PMS7003;64830;46.910;6.354;2023-04-03T13:34:10;1.00;1.00;0.00
76101;PMS7003;64830;46.910;6.354;2023-04-03T13:37:02;4.25;2.75;2.00
76101;PMS7003;64830;46.910;6.354;2023-04-03T13:39:32;6.75;6.00;4.00
76101;PMS7003;64830;46.910;6.354;2023-04-03T13:42:00;7.25;6.75;3.50
76101;PMS7003;64830;46.910;6.354;2023-04-03T13:44:39;7.00;6.00;4.00
76101;PMS7003;64830;46.910;6.354;2023-04-03T13:49:46;3.00;3.00;3.00
76101;PMS7003;64830;46.910;6.354;2023-04-03T13:52:30;4.50;4.50;3.00
76101;PMS7003;64830;46.910;6.354;2023-04-03T13:55:04;7.75;7.50;6.75
76101;PMS7003;64830;46.910;6.354;2023-04-03T13:57:53;4.50;4.00;3.00
76101;PMS7003;64830;46.910;6.354;2023-04-03T14:03:18;4.00;4.00;3.00
76101;PMS7003;64830;46.910;6.354;2023-04-03T14:05:47;6.25;6.25;4.00
76101;PMS7003;64830;46.910;6.354;2023-04-03T14:08:13;5.25;3.50;3.00
76101;PMS7003;64830;46.910;6.354;2023-04-03T14:10:38;13.00;11.75;6.50
76101;PMS7003;64830;46.910;6.354;2023-04-03T14:13:04;5.00;4.00;4.00
76101;PMS7003;64830;46.910;6.354;2023-04-03T14:15:30;6.25;3.25;2.25
76101;PMS7003;64830;46.910;6.354;2023-04-03T14:17:57;5.50;3.25;2.25
76101;PMS7003;64830;46.910;6.354;2023-04-03T14:20:23;7.50;4.00;3.25
76101;PMS7003;64830;46.910;6.354;2023-04-03T14:22:51;8.00;4.50;3.00
76101;PMS7003;64830;46.910;6.354;2023-04-03T14:25:17;3.00;3.00;1.00
76101;PMS7003;64830;46.910;6.354;2023-04-03T14:27:45;3.50;3.50;1.75
76101;PMS7003;64830;46.910;6.354;2023-04-03T14:30:14;8.00;6.75;4.00
76101;PMS7003;64830;46.910;6.354;2023-04-03T14:32:43;4.00;4.00;3.00
76101;PMS7003;64830;46.910;6.354;2023-04-03T14:35:09;3.75;3.75;3.50
76101;PMS7003;64830;46.910;6.354;2023-04-03T14:37:35;2.75;2.00;1.00
76101;PMS7003;64830;46.910;6.354;2023-04-03T14:40:01;5.00;5.00;4.00
76101;PMS7003;64830;46.910;6.354;2023-04-03T14:42:30;4.00;4.00;2.75
76101;PMS7003;64830;46.910;6.354;2023-04-03T14:44:58;5.50;3.75;2.50
76101;PMS7003;64830;46.910;6.354;2023-04-03T14:47:25;5.00;5.00;4.25
76101;PMS7003;64830;46.910;6.354;2023-04-03T14:49:53;4.25;4.25;3.00
76101;PMS7003;64830;46.910;6.354;2023-04-03T14:52:24;1.00;0.75;0.00
76101;PMS7003;64830;46.910;6.354;2023-04-03T14:54:52;4.25;4.25;3.75
76101;PMS7003;64830;46.910;6.354;2023-04-03T14:57:18;3.25;3.25;2.75
76101;PMS7003;64830;46.910;6.354;2023-04-03T14:59:44;1.50;1.50;0.00
76101;PMS7003;64830;46.910;6.354;2023-04-03T15:04:55;5.25;5.25;4.25
76101;PMS7003;64830;46.910;6.354;2023-04-03T15:07:21;5.75;4.50;3.50
76101;PMS7003;64830;46.910;6.354;2023-04-03T15:09:48;7.00;4.50;3.00
76101;PMS7003;64830;46.910;6.354;2023-04-03T15:12:14;8.25;6.25;3.00
76101;PMS7003;64830;46.910;6.354;2023-04-03T15:14:40;6.00;4.50;3.00
76101;PMS7003;64830;46.910;6.354;2023-04-03T15:17:05;6.50;6.50;4.00
76101;PMS7003;64830;46.910;6.354;2023-04-03T15:19:38;5.25;4.50;3.25
76101;PMS7003;64830;46.910;6.354;2023-04-03T15:22:03;6.00;6.00;5.50
76101;PMS7003;64830;46.910;6.354;2023-04-03T15:24:32;8.00;4.50;3.75
76101;PMS7003;64830;46.910;6.354;2023-04-03T15:26:57;4.00;4.00;3.00
76101;PMS7003;64830;46.910;6.354;2023-04-03T15:29:24;5.75;4.25;3.00
76101;PMS7003;64830;46.910;6.354;2023-04-03T15:31:50;6.25;6.25;3.25
76101;PMS7003;64830;46.910;6.354;2023-04-03T15:34:19;4.00;3.00;2.25
76101;PMS7003;64830;46.910;6.354;2023-04-03T15:36:46;6.00;6.00;3.50
76101;PMS7003;64830;46.910;6.354;2023-04-03T15:39:11;8.00;6.75;4.00
76101;PMS7003;64830;46.910;6.354;2023-04-03T15:41:38;3.25;3.25;2.75
76101;PMS7003;64830;46.910;6.354;2023-04-03T15:44:03;3.75;3.50;3.00
76101;PMS7003;64830;46.910;6.354;2023-04-03T15:46:29;8.25;7.00;4.00
76101;PMS7003;64830;46.910;6.354;2023-04-03T15:48:54;3.00;3.00;3.00
76101;PMS7003;64830;46.910;6.354;2023-04-03T15:51:20;4.00;4.00;3.00
76101;PMS7003;64830;46.910;6.354;2023-04-03T15:53:45;8.25;6.00;3.50
76101;PMS7003;64830;46.910;6.354;2023-04-03T15:56:11;3.00;3.00;2.25
76101;PMS7003;64830;46.910;6.354;2023-04-03T15:58:37;5.50;4.00;3.00
76101;PMS7003;64830;46.910;6.354;2023-04-03T16:01:02;7.75;7.75;4.00
76101;PMS7003;64830;46.910;6.354;2023-04-03T16:03:28;5.00;5.00;3.00
76101;PMS7003;64830;46.910;6.354;2023-04-03T16:05:54;3.00;1.75;1.00
76101;PMS7003;64830;46.910;6.354;2023-04-03T16:08:20;7.50;6.50;4.00
76101;PMS7003;64830;46.910;6.354;2023-04-03T16:10:46;4.00;2.75;1.50
76101;PMS7003;64830;46.910;6.354;2023-04-03T16:13:12;3.00;3.00;2.00
76101;PMS7003;64830;46.910;6.354;2023-04-03T16:15:37;2.75;2.75;2.00
76101;PMS7003;64830;46.910;6.354;2023-04-03T16:18:03;2.50;2.50;2.00
76101;PMS7003;64830;46.910;6.354;2023-04-03T16:20:30;4.50;3.50;3.00